Time;durP1;ratioP1;P1;durP2;ratioP2;P2;SDS_P1;SDS_P2;PMS_P1;PMS_P2;Temp;Humidity;BMP_temperature;BMP_pressure;BME280_temperature;BME280_humidity;BME280_pressure;Samples;Min_cycle;Max_cycle;Signal;HPM_P1;HPM_P2
2023/05/28 00:02:37;;;;;;;14.90;6.50;;;;;;;8.46;57.43;100912.16;129859;1259;115196;-63
2023/05/28 00:05:40;;;;;;;12.30;5.90;;;;;;;8.40;57.60;100908.95;129838;1262;114785;-63
2023/05/28 00:08:43;;;;;;;12.40;6.90;;;;;;;8.34;57.52;100907.00;130047;1259;115245;-64
2023/05/28 00:11:46;;;;;;;18.70;6.80;;;;;;;8.27;57.70;100904.00;130121;1258;114796;-64
2023/05/28 00:14:48;;;;;;;11.50;7.20;;;;;;;8.22;58.12;100902.58;130056;1259;114732;-64
2023/05/28 00:17:52;;;;;;;11.20;6.00;;;;;;;8.16;57.93;100903.99;130361;1270;114747;-63
2023/05/28 00:20:55;;;;;;;12.30;5.90;;;;;;;8.09;58.08;100905.80;129871;1271;114733;-62
2023/05/28 00:23:57;;;;;;;15.30;6.50;;;;;;;8.02;58.08;100903.48;130037;1272;115345;-63
2023/05/28 00:26:59;;;;;;;12.30;5.90;;;;;;;7.97;58.17;100903.63;130141;1260;114753;-62
2023/05/28 00:30:02;;;;;;;10.20;6.40;;;;;;;7.93;58.17;100898.96;130067;1257;114771;-64
2023/05/28 00:33:04;;;;;;;15.70;6.40;;;;;;;7.89;58.65;100902.44;129837;1276;114834;-64
2023/05/28 00:36:07;;;;;;;12.80;6.60;;;;;;;7.88;58.38;100903.38;130001;1269;114755;-65
2023/05/28 00:39:09;;;;;;;15.30;5.80;;;;;;;7.87;58.44;100901.77;130013;1269;114798;-65
2023/05/28 00:42:12;;;;;;;8.70;5.10;;;;;;;7.85;58.47;100894.36;130001;1260;114774;-65
2023/05/28 00:45:14;;;;;;;12.90;5.80;;;;;;;7.84;58.51;100893.52;130069;1269;114801;-68
2023/05/28 00:48:17;;;;;;;9.70;5.20;;;;;;;7.84;58.65;100894.59;130099;1265;115377;-65
2023/05/28 00:51:19;;;;;;;11.70;6.60;;;;;;;7.82;58.64;100889.50;130146;1260;114766;-65
2023/05/28 00:54:23;;;;;;;12.60;5.90;;;;;;;7.78;58.83;100889.43;129921;1262;114738;-65
2023/05/28 00:57:25;;;;;;;9.20;5.40;;;;;;;7.73;58.74;100888.33;129648;1272;127768;-63
2023/05/28 01:00:27;;;;;;;10.00;5.30;;;;;;;7.67;58.90;100880.15;130097;1270;114820;-65
2023/05/28 01:03:30;;;;;;;9.80;5.60;;;;;;;7.60;58.99;100878.02;130135;1254;114968;-64
2023/05/28 01:06:38;;;;;;;11.00;5.90;;;;;;;7.54;58.96;100875.70;130213;1259;114758;-64
2023/05/28 01:09:40;;;;;;;12.00;5.80;;;;;;;7.48;59.06;100876.04;130050;1262;114726;-64
2023/05/28 01:12:43;;;;;;;5.60;4.50;;;;;;;7.42;59.28;100875.84;129707;1259;115339;-64
2023/05/28 01:15:45;;;;;;;9.90;5.30;;;;;;;7.36;59.26;100870.49;130232;1254;114676;-64
2023/05/28 01:18:48;;;;;;;16.60;6.20;;;;;;;7.31;59.53;100874.36;130108;1254;115081;-67
2023/05/28 01:21:56;;;;;;;9.10;5.50;;;;;;;7.24;59.51;100871.51;130116;1277;114712;-64
2023/05/28 01:25:00;;;;;;;12.40;5.60;;;;;;;7.19;59.39;100872.71;130034;1258;114798;-65
2023/05/28 01:28:12;;;;;;;11.60;5.40;;;;;;;7.14;59.63;100871.77;129878;1277;114938;-65
2023/05/28 01:31:15;;;;;;;13.10;5.60;;;;;;;7.10;59.66;100870.82;129920;1264;114759;-64
2023/05/28 01:34:21;;;;;;;9.90;4.90;;;;;;;7.08;59.80;100869.44;130077;1268;128910;-64
2023/05/28 01:37:24;;;;;;;9.70;5.80;;;;;;;7.06;59.79;100869.49;130352;1259;115202;-67
2023/05/28 01:40:27;;;;;;;11.90;5.90;;;;;;;7.04;59.85;100871.17;130158;1270;115045;-65
2023/05/28 01:43:30;;;;;;;12.10;6.50;;;;;;;6.99;60.03;100872.70;130134;1261;115112;-63
2023/05/28 01:46:33;;;;;;;9.20;5.50;;;;;;;6.96;60.05;100869.05;130146;1267;114717;-65
2023/05/28 01:49:37;;;;;;;15.20;5.80;;;;;;;6.94;60.28;100865.56;130011;1261;114804;-63
2023/05/28 01:52:39;;;;;;;9.90;5.80;;;;;;;6.94;60.39;100857.91;130065;1254;114812;-68
2023/05/28 01:55:41;;;;;;;13.10;5.40;;;;;;;6.93;60.47;100857.05;130282;1261;115393;-64
2023/05/28 01:58:43;;;;;;;9.90;5.70;;;;;;;6.95;60.56;100854.32;130273;1268;114725;-64
2023/05/28 02:01:45;;;;;;;11.60;5.50;;;;;;;6.98;60.61;100854.59;130240;1261;116257;-63
2023/05/28 02:04:47;;;;;;;9.00;5.10;;;;;;;7.02;60.64;100853.27;130104;1254;115177;-63
2023/05/28 02:07:49;;;;;;;13.10;5.00;;;;;;;7.05;60.51;100849.27;130151;1258;114720;-63
2023/05/28 02:10:52;;;;;;;12.20;5.40;;;;;;;7.07;60.52;100849.06;130110;1270;127560;-62
2023/05/28 02:13:54;;;;;;;11.70;5.70;;;;;;;7.06;60.50;100845.17;130198;1270;115402;-62
2023/05/28 02:16:56;;;;;;;11.20;5.40;;;;;;;7.03;60.54;100842.06;130203;1259;114784;-63
2023/05/28 02:19:58;;;;;;;11.40;5.20;;;;;;;6.98;60.63;100835.78;130238;1277;114736;-63
2023/05/28 02:23:00;;;;;;;11.80;5.20;;;;;;;6.95;60.64;100835.36;128461;1265;114726;-65
2023/05/28 02:26:02;;;;;;;10.60;5.40;;;;;;;6.91;60.64;100834.54;130082;1272;114705;-63
2023/05/28 02:29:05;;;;;;;7.90;4.70;;;;;;;6.88;60.66;100838.17;130121;1275;114638;-62
2023/05/28 02:32:07;;;;;;;9.10;5.30;;;;;;;6.85;60.72;100837.38;129784;1256;114719;-62
2023/05/28 02:35:10;;;;;;;9.80;5.40;;;;;;;6.81;60.63;100836.92;130021;1277;115094;-63
2023/05/28 02:38:12;;;;;;;11.90;5.60;;;;;;;6.77;60.84;100836.33;129703;1274;115227;-64
2023/05/28 02:41:14;;;;;;;9.10;5.10;;;;;;;6.73;60.88;100842.80;129795;1268;115242;-66
2023/05/28 02:44:17;;;;;;;14.40;5.70;;;;;;;6.69;61.02;100845.21;129861;1254;115298;-67
2023/05/28 02:47:19;;;;;;;9.70;5.20;;;;;;;6.66;61.02;100843.49;130154;1254;114782;-67
2023/05/28 02:50:21;;;;;;;11.10;5.40;;;;;;;6.63;61.08;100845.18;130138;1277;114785;-64
2023/05/28 02:53:23;;;;;;;11.10;5.30;;;;;;;6.61;61.01;100848.25;130102;1260;114718;-62
2023/05/28 02:56:25;;;;;;;10.60;5.50;;;;;;;6.59;61.16;100847.23;130355;1278;114791;-64
2023/05/28 02:59:27;;;;;;;12.10;5.00;;;;;;;6.59;61.21;100846.88;129846;1260;115223;-62
2023/05/28 03:02:29;;;;;;;9.30;5.00;;;;;;;6.61;61.31;100848.27;130099;1257;114780;-65
2023/05/28 03:05:32;;;;;;;9.00;4.90;;;;;;;6.62;61.41;100846.65;129870;1261;114731;-63
2023/05/28 03:08:35;;;;;;;14.50;5.60;;;;;;;6.64;61.58;100846.05;129513;1261;114885;-62
2023/05/28 03:11:37;;;;;;;9.20;4.80;;;;;;;6.66;61.61;100851.85;129847;1261;114722;-61
2023/05/28 03:14:39;;;;;;;9.20;5.20;;;;;;;6.68;61.69;100855.70;129985;1257;115437;-63
2023/05/28 03:17:42;;;;;;;8.40;4.90;;;;;;;6.72;61.74;100862.36;130105;1257;114724;-62
2023/05/28 03:20:44;;;;;;;9.60;5.10;;;;;;;6.76;61.96;100864.39;129740;1278;115164;-63
2023/05/28 03:23:47;;;;;;;10.40;5.00;;;;;;;6.81;62.10;100864.81;129818;1257;114809;-62
2023/05/28 03:26:49;;;;;;;9.90;5.40;;;;;;;6.86;62.24;100863.27;129808;1260;114757;-62
2023/05/28 03:29:52;;;;;;;13.50;6.30;;;;;;;6.92;62.21;100860.79;129919;1277;114744;-66
2023/05/28 03:32:54;;;;;;;8.00;5.40;;;;;;;7.00;61.87;100862.38;129860;1254;114718;-61
2023/05/28 03:35:56;;;;;;;10.70;5.90;;;;;;;7.09;61.93;100860.01;129548;1266;128393;-62
2023/05/28 03:38:59;;;;;;;11.30;5.40;;;;;;;7.21;61.72;100860.77;129777;1260;114783;-63
2023/05/28 03:42:01;;;;;;;10.40;6.10;;;;;;;7.32;61.75;100856.39;130210;1261;115150;-63
2023/05/28 03:45:04;;;;;;;11.70;5.70;;;;;;;7.43;61.61;100852.55;130100;1274;114695;-63
2023/05/28 03:48:06;;;;;;;11.90;6.50;;;;;;;7.54;61.61;100854.89;130182;1258;114651;-63
2023/05/28 03:51:09;;;;;;;11.90;5.60;;;;;;;7.67;61.25;100863.79;130147;1256;114720;-67
2023/05/28 03:54:11;;;;;;;12.00;5.60;;;;;;;7.80;61.35;100867.16;130072;1268;114704;-64
2023/05/28 03:57:13;;;;;;;10.40;5.30;;;;;;;7.92;60.88;100858.98;130185;1261;114785;-65
2023/05/28 04:00:16;;;;;;;12.30;6.00;;;;;;;8.05;60.60;100860.36;129992;1254;115318;-64
2023/05/28 04:03:18;;;;;;;9.40;6.00;;;;;;;8.17;60.51;100863.02;130175;1260;114709;-68
2023/05/28 04:06:20;;;;;;;13.80;5.90;;;;;;;8.30;60.45;100862.10;130298;1257;114985;-63
2023/05/28 04:09:22;;;;;;;15.30;6.30;;;;;;;8.42;60.27;100857.63;130021;1254;115089;-64
2023/05/28 04:12:24;;;;;;;11.70;6.20;;;;;;;8.56;60.22;100857.77;130192;1254;114786;-67
2023/05/28 04:15:26;;;;;;;10.00;6.00;;;;;;;8.70;60.14;100850.73;130640;1254;114725;-64
2023/05/28 04:18:28;;;;;;;11.10;6.10;;;;;;;8.84;59.78;100848.65;130921;1254;114707;-63
2023/05/28 04:21:30;;;;;;;10.70;6.30;;;;;;;8.97;59.76;100847.84;130731;1254;114931;-63
2023/05/28 04:24:32;;;;;;;12.90;6.20;;;;;;;9.12;59.43;100846.46;130518;1278;114777;-71
2023/05/28 04:27:35;;;;;;;12.10;5.60;;;;;;;9.27;59.26;100845.04;130444;1278;114715;-71
2023/05/28 04:30:37;;;;;;;8.60;5.50;;;;;;;9.43;59.16;100849.80;130344;1255;114715;-64
2023/05/28 04:33:39;;;;;;;11.60;5.90;;;;;;;9.61;58.99;100856.14;130262;1257;114748;-72
2023/05/28 04:36:42;;;;;;;13.00;6.20;;;;;;;10.12;59.53;100852.26;130320;1278;114789;-70
2023/05/28 04:39:45;;;;;;;11.40;5.10;;;;;;;11.12;58.77;100850.37;130068;1261;115139;-62
2023/05/28 04:42:47;;;;;;;11.60;5.30;;;;;;;12.26;58.24;100846.19;130125;1255;115549;-62
2023/05/28 04:45:49;;;;;;;8.60;5.00;;;;;;;13.38;57.05;100836.66;130092;1256;114705;-62
2023/05/28 04:48:52;;;;;;;7.50;5.20;;;;;;;14.47;56.49;100835.05;130093;1259;114763;-62
2023/05/28 04:51:54;;;;;;;11.90;5.20;;;;;;;15.48;54.47;100833.44;130078;1254;114675;-65
2023/05/28 04:54:56;;;;;;;9.60;5.10;;;;;;;16.34;53.67;100833.49;130164;1258;115164;-61
2023/05/28 04:57:58;;;;;;;7.40;5.20;;;;;;;17.20;52.11;100834.30;129854;1264;128037;-62
2023/05/28 05:01:00;;;;;;;11.60;5.40;;;;;;;17.96;51.00;100839.09;130082;1259;115133;-63
2023/05/28 05:04:02;;;;;;;7.20;4.90;;;;;;;18.77;49.61;100837.52;129875;1259;114736;-62
2023/05/28 05:07:05;;;;;;;12.00;5.90;;;;;;;19.38;48.02;100832.88;129585;1254;114964;-62
2023/05/28 05:10:09;;;;;;;7.90;5.00;;;;;;;19.84;46.33;100836.58;129879;1254;114716;-63
2023/05/28 05:13:11;;;;;;;8.10;4.70;;;;;;;20.09;44.91;100836.73;130304;1258;114643;-63
2023/05/28 05:16:13;;;;;;;7.80;4.60;;;;;;;20.35;43.96;100839.02;130119;1254;114709;-62
2023/05/28 05:19:17;;;;;;;7.70;5.40;;;;;;;20.78;43.75;100836.55;130156;1255;114728;-63
2023/05/28 05:22:19;;;;;;;10.00;5.50;;;;;;;21.07;42.70;100830.30;129833;1255;114925;-63
2023/05/28 05:25:21;;;;;;;8.80;4.80;;;;;;;21.50;42.52;100828.09;130111;1258;114784;-61
2023/05/28 05:28:23;;;;;;;6.20;4.60;;;;;;;21.94;41.48;100828.98;129891;1263;114898;-62
2023/05/28 05:31:25;;;;;;;7.70;4.80;;;;;;;22.36;40.92;100831.23;129522;1264;114742;-63
2023/05/28 05:34:28;;;;;;;7.40;4.40;;;;;;;22.67;39.65;100830.80;130075;1255;114717;-66
2023/05/28 05:37:30;;;;;;;7.70;5.00;;;;;;;22.72;39.22;100825.77;130265;1256;115391;-63
2023/05/28 05:40:32;;;;;;;5.70;4.00;;;;;;;22.87;39.10;100825.30;130076;1260;128563;-64
2023/05/28 05:43:33;;;;;;;9.20;5.50;;;;;;;23.19;38.32;100824.52;130105;1259;114737;-65
2023/05/28 05:46:36;;;;;;;5.80;4.40;;;;;;;23.32;38.03;100826.92;130225;1278;114738;-65
2023/05/28 05:49:38;;;;;;;9.80;4.50;;;;;;;23.61;37.30;100821.09;130233;1260;114643;-64
2023/05/28 05:52:41;;;;;;;7.00;5.40;;;;;;;23.70;36.89;100821.16;129779;1260;114748;-69
2023/05/28 05:55:43;;;;;;;7.20;4.90;;;;;;;23.96;36.17;100818.83;130163;1260;114775;-66
2023/05/28 05:58:46;;;;;;;7.10;4.10;;;;;;;24.27;36.24;100813.45;129987;1271;114728;-67
2023/05/28 06:01:49;;;;;;;6.20;4.40;;;;;;;24.53;35.69;100808.78;130189;1278;114801;-70
2023/05/28 06:04:51;;;;;;;7.80;4.00;;;;;;;24.76;34.69;100810.89;129955;1258;115238;-72
2023/05/28 06:07:53;;;;;;;9.50;3.90;;;;;;;24.96;34.76;100806.71;130295;1261;114911;-68
2023/05/28 06:10:56;;;;;;;7.80;4.20;;;;;;;25.05;33.86;100806.54;130385;1260;114762;-63
2023/05/28 06:13:58;;;;;;;6.00;4.20;;;;;;;25.26;34.20;100806.36;130126;1260;114685;-63
2023/05/28 06:17:00;;;;;;;8.60;3.80;;;;;;;25.24;32.88;100808.02;130118;1278;114771;-66
2023/05/28 06:20:06;;;;;;;8.90;3.90;;;;;;;25.08;32.63;100806.54;129836;1260;114744;-64
2023/05/28 06:23:08;;;;;;;9.00;3.90;;;;;;;24.98;32.71;100808.83;129995;1277;114878;-67
2023/05/28 06:26:10;;;;;;;8.60;4.20;;;;;;;24.86;32.13;100806.61;130232;1278;115339;-63
2023/05/28 06:29:13;;;;;;;10.70;3.80;;;;;;;24.73;32.50;100804.84;130190;1256;114746;-68
2023/05/28 06:32:15;;;;;;;10.40;4.10;;;;;;;24.72;32.10;100803.96;130222;1260;114694;-69
2023/05/28 06:35:18;;;;;;;5.60;3.80;;;;;;;24.58;32.09;100810.55;130252;1278;114769;-67
2023/05/28 06:38:21;;;;;;;4.20;3.00;;;;;;;24.41;31.65;100819.51;130183;1276;114896;-65
2023/05/28 06:41:23;;;;;;;5.00;3.50;;;;;;;24.32;32.21;100816.33;130094;1256;114820;-65
2023/05/28 06:44:25;;;;;;;8.80;3.20;;;;;;;24.51;31.70;100813.62;130099;1261;114818;-65
2023/05/28 06:47:27;;;;;;;6.20;3.10;;;;;;;24.59;31.19;100812.62;130158;1260;114785;-68
2023/05/28 06:50:30;;;;;;;6.30;3.50;;;;;;;24.68;31.77;100810.40;130376;1255;116421;-64
2023/05/28 06:53:32;;;;;;;5.80;3.30;;;;;;;25.08;32.06;100802.50;130171;1260;114794;-70
2023/05/28 06:56:35;;;;;;;6.40;3.40;;;;;;;25.44;31.05;100807.23;130083;1278;115372;-69
2023/05/28 06:59:38;;;;;;;10.20;3.00;;;;;;;25.51;30.65;100804.84;130267;1260;114813;-64
2023/05/28 07:02:40;;;;;;;4.40;3.30;;;;;;;25.52;30.58;100806.64;129847;1264;115286;-69
2023/05/28 07:05:42;;;;;;;7.00;3.20;;;;;;;25.78;30.87;100806.79;130103;1260;115266;-65
2023/05/28 07:08:45;;;;;;;6.30;3.20;;;;;;;26.24;31.04;100806.71;130210;1255;114719;-65
2023/05/28 07:11:46;;;;;;;4.60;3.00;;;;;;;26.68;30.29;100806.00;130006;1264;114842;-63
2023/05/28 07:14:48;;;;;;;6.00;3.40;;;;;;;26.99;29.83;100805.29;130266;1260;115052;-67
2023/05/28 07:17:50;;;;;;;8.20;3.30;;;;;;;27.26;28.91;100805.28;130268;1278;114729;-66
2023/05/28 07:20:53;;;;;;;5.40;2.70;;;;;;;27.36;29.21;100801.55;130089;1255;120377;-67
2023/05/28 07:23:55;;;;;;;7.40;3.10;;;;;;;27.62;29.00;100800.11;130237;1259;114747;-67
2023/05/28 07:26:57;;;;;;;6.00;2.70;;;;;;;27.99;28.82;100796.47;130184;1259;115085;-66
2023/05/28 07:29:59;;;;;;;6.10;2.40;;;;;;;28.43;28.30;100794.14;130385;1258;115502;-67
2023/05/28 07:33:01;;;;;;;5.00;2.60;;;;;;;28.69;27.62;100793.96;129809;1261;116183;-68
2023/05/28 07:36:03;;;;;;;9.10;3.80;;;;;;;28.88;27.61;100791.23;130261;1258;114692;-67
2023/05/28 07:39:05;;;;;;;7.00;3.10;;;;;;;29.15;27.83;100787.61;130274;1258;114699;-64
2023/05/28 07:42:08;;;;;;;5.70;2.90;;;;;;;29.32;27.01;100783.10;130097;1254;119888;-66
2023/05/28 07:45:10;;;;;;;7.70;3.70;;;;;;;29.24;26.95;100778.34;130162;1273;114716;-67
2023/05/28 07:48:12;;;;;;;4.70;2.80;;;;;;;29.09;25.93;100784.11;130111;1259;114828;-69
2023/05/28 07:51:14;;;;;;;8.40;2.90;;;;;;;28.42;24.94;100780.45;130210;1258;114728;-66
2023/05/28 07:54:16;;;;;;;4.90;2.90;;;;;;;27.81;25.49;100779.77;129883;1258;114821;-65
2023/05/28 07:57:19;;;;;;;3.70;2.40;;;;;;;27.57;25.59;100775.98;130208;1270;114764;-68
2023/05/28 08:00:21;;;;;;;5.80;2.60;;;;;;;27.59;26.53;100770.29;130324;1270;115392;-68
2023/05/28 08:03:27;;;;;;;6.00;2.20;;;;;;;27.89;25.98;100771.73;130238;1255;120077;-65
2023/05/28 08:06:29;;;;;;;9.40;2.90;;;;;;;28.08;26.00;100763.59;130264;1260;115337;-64
2023/05/28 08:09:31;;;;;;;5.70;2.00;;;;;;;28.28;25.81;100761.11;130150;1257;115061;-68
2023/05/28 08:12:33;;;;;;;3.50;1.80;;;;;;;28.19;25.02;100758.67;130213;1277;114837;-68
2023/05/28 08:15:36;;;;;;;5.50;2.10;;;;;;;28.10;24.94;100754.02;130066;1264;114756;-67
2023/05/28 08:18:39;;;;;;;3.50;2.60;;;;;;;28.14;25.21;100750.79;130186;1277;115239;-69
2023/05/28 08:21:41;;;;;;;4.10;2.20;;;;;;;28.41;25.27;100754.45;130214;1277;114700;-65
2023/05/28 08:24:43;;;;;;;4.30;2.40;;;;;;;28.59;24.92;100749.61;130195;1255;115594;-65
2023/05/28 08:27:45;;;;;;;5.70;2.00;;;;;;;28.74;24.98;100745.95;130258;1259;115021;-65
2023/05/28 08:30:47;;;;;;;3.50;1.60;;;;;;;28.83;23.94;100746.16;130249;1258;114719;-67
2023/05/28 08:33:49;;;;;;;3.00;1.70;;;;;;;28.51;23.15;100746.33;130230;1256;114784;-63
2023/05/28 08:36:51;;;;;;;5.90;1.40;;;;;;;28.15;23.56;100745.41;130077;1255;114736;-64
2023/05/28 08:39:53;;;;;;;3.40;1.70;;;;;;;27.90;23.43;100748.93;130058;1278;114720;-64
2023/05/28 08:42:56;;;;;;;6.40;2.00;;;;;;;27.66;23.26;100750.36;129911;1255;115758;-64
2023/05/28 08:45:58;;;;;;;5.60;2.30;;;;;;;27.53;23.22;100743.67;130048;1278;120175;-65
2023/05/28 08:49:00;;;;;;;4.80;2.00;;;;;;;27.44;23.36;100742.48;130089;1259;115242;-68
2023/05/28 08:52:05;;;;;;;6.00;1.80;;;;;;;27.59;23.81;100744.14;130062;1261;114759;-65
2023/05/28 08:55:07;;;;;;;;;;;;;;;27.75;23.83;100742.68;129808;1263;114740;-67
2023/05/28 08:58:10;;;;;;;3.20;1.90;;;;;;;27.90;23.72;100737.27;130093;1261;114743;-63
2023/05/28 09:01:12;;;;;;;5.50;1.90;;;;;;;27.83;22.97;100739.88;129989;1261;114727;-66
2023/05/28 09:04:17;;;;;;;3.10;1.70;;;;;;;27.66;23.29;100734.48;130139;1260;114799;-69
2023/05/28 09:07:19;;;;;;;4.80;2.10;;;;;;;27.70;23.32;100731.98;129822;1263;119193;-65
2023/05/28 09:10:22;;;;;;;5.90;1.50;;;;;;;27.59;23.07;100730.86;130088;1278;114813;-65
2023/05/28 09:13:25;;;;;;;2.80;2.00;;;;;;;27.12;22.23;100739.00;130103;1270;114849;-65
2023/05/28 09:16:28;;;;;;;2.50;2.00;;;;;;;26.61;22.43;100735.47;130073;1278;115162;-65
2023/05/28 09:19:31;;;;;;;5.00;2.10;;;;;;;26.24;22.59;100736.06;130081;1261;114712;-64
2023/05/28 09:22:34;;;;;;;4.90;2.30;;;;;;;25.95;23.16;100734.86;130238;1260;114675;-64
2023/05/28 09:25:38;;;;;;;3.90;1.90;;;;;;;25.89;23.62;100729.67;130168;1261;115344;-65
2023/05/28 09:28:42;;;;;;;2.10;1.80;;;;;;;25.88;23.71;100722.12;130096;1269;114812;-66
2023/05/28 09:32:00;;;;;;;4.50;1.90;;;;;;;25.78;23.60;100725.03;130125;1256;115283;-69
2023/05/28 09:35:06;;;;;;;4.80;2.50;;;;;;;25.71;23.57;100726.19;130133;1261;115388;-66
2023/05/28 09:38:11;;;;;;;6.30;1.90;;;;;;;25.50;23.54;100723.94;130161;1256;115401;-69
2023/05/28 09:41:24;;;;;;;4.00;2.10;;;;;;;25.15;23.69;100726.69;129814;1255;119228;-70
2023/05/28 09:44:30;;;;;;;7.20;2.90;;;;;;;24.92;24.26;100723.05;129845;1262;115306;-69
2023/05/28 09:47:32;;;;;;;4.60;1.70;;;;;;;24.69;24.36;100719.98;130305;1260;114678;-72
2023/05/28 09:50:34;;;;;;;5.30;2.20;;;;;;;24.37;24.17;100721.30;130133;1260;115148;-66
2023/05/28 09:53:39;;;;;;;5.10;2.10;;;;;;;24.07;24.86;100716.77;130283;1277;115319;-69
2023/05/28 09:56:42;;;;;;;5.30;2.00;;;;;;;23.97;25.33;100718.19;130013;1260;115156;-62
2023/05/28 09:59:46;;;;;;;3.80;1.90;;;;;;;23.83;25.13;100709.48;129907;1277;114805;-69
2023/05/28 10:02:54;;;;;;;2.60;1.70;;;;;;;23.52;25.11;100709.11;130083;1277;114710;-68
2023/05/28 10:06:00;;;;;;;6.70;2.50;;;;;;;23.25;25.58;100707.83;129878;1258;114918;-71
2023/05/28 10:09:04;;;;;;;5.40;1.70;;;;;;;23.07;25.79;100707.38;130130;1258;114795;-72
2023/05/28 10:12:12;;;;;;;3.00;1.70;;;;;;;23.05;26.22;100707.14;129920;1258;115117;-64
2023/05/28 10:15:16;;;;;;;3.10;2.20;;;;;;;22.98;25.60;100704.41;130200;1277;127550;-71
2023/05/28 10:18:19;;;;;;;3.10;1.70;;;;;;;22.72;25.30;100708.86;130018;1258;115197;-72
2023/05/28 10:21:22;;;;;;;4.60;1.90;;;;;;;22.47;25.31;100713.36;130274;1256;114815;-72
2023/05/28 10:24:24;;;;;;;3.40;2.00;;;;;;;22.26;25.32;100709.09;130046;1271;114733;-69
2023/05/28 10:27:31;;;;;;;6.40;1.70;;;;;;;22.16;25.24;100709.63;130254;1255;114765;-66
2023/05/28 10:30:36;;;;;;;3.40;1.80;;;;;;;22.16;25.41;100696.33;129953;1263;127935;-68
2023/05/28 10:33:43;;;;;;;7.80;1.90;;;;;;;22.12;25.31;100698.56;129932;1255;114723;-71
2023/05/28 10:36:54;;;;;;;3.90;1.70;;;;;;;22.09;25.47;100686.98;130292;1255;114713;-72
2023/05/28 10:39:56;;;;;;;3.00;1.90;;;;;;;22.01;25.34;100687.77;129816;1264;114905;-71
2023/05/28 10:42:59;;;;;;;5.60;1.90;;;;;;;21.93;25.45;100687.03;129990;1259;115346;-71
2023/05/28 10:46:01;;;;;;;4.30;1.60;;;;;;;21.79;25.56;100686.30;130119;1261;114816;-72
2023/05/28 10:49:16;;;;;;;7.10;1.80;;;;;;;21.70;25.93;100680.70;130061;1277;114746;-71
2023/05/28 10:52:22;;;;;;;4.60;2.00;;;;;;;21.70;25.89;100682.54;129828;1278;115168;-71
2023/05/28 10:55:24;;;;;;;13.00;4.80;;;;;;;21.63;26.01;100683.01;129987;1260;114791;-72
2023/05/28 10:58:36;;;;;;;3.50;1.90;;;;;;;21.58;26.27;100682.69;130180;1264;115092;-69
2023/05/28 11:01:38;;;;;;;4.60;1.80;;;;;;;21.58;26.21;100678.52;129911;1261;114936;-73
2023/05/28 11:04:41;;;;;;;3.80;1.70;;;;;;;21.56;26.56;100681.44;130066;1255;114745;-70
2023/05/28 11:07:43;;;;;;;3.90;1.70;;;;;;;21.53;26.73;100677.33;130177;1278;115075;-69
2023/05/28 11:10:48;;;;;;;2.90;1.80;;;;;;;21.45;26.90;100676.04;130078;1260;114745;-72
2023/05/28 11:13:50;;;;;;;5.00;1.70;;;;;;;21.40;26.99;100677.37;130059;1260;114723;-71
2023/05/28 11:16:53;;;;;;;7.90;1.90;;;;;;;21.32;26.94;100676.25;130042;1261;115142;-70
2023/05/28 11:19:55;;;;;;;3.30;2.00;;;;;;;21.21;26.59;100677.21;130152;1254;114767;-71
2023/05/28 11:22:57;;;;;;;6.30;1.90;;;;;;;21.16;26.47;100683.55;130152;1254;114720;-70
2023/05/28 11:25:59;;;;;;;4.70;2.10;;;;;;;21.09;26.78;100678.30;130067;1277;127862;-67
2023/05/28 11:29:03;;;;;;;3.90;2.20;;;;;;;21.07;27.03;100677.59;130361;1273;114807;-72
2023/05/28 11:32:06;;;;;;;3.80;2.30;;;;;;;21.08;27.00;100673.27;130294;1277;114754;-72
2023/05/28 11:35:12;;;;;;;4.30;1.80;;;;;;;21.03;26.64;100675.88;130234;1258;114764;-70
2023/05/28 11:38:18;;;;;;;5.70;1.70;;;;;;;20.94;26.51;100670.84;130208;1277;114767;-72
2023/05/28 11:41:23;;;;;;;3.20;1.70;;;;;;;20.92;27.13;100658.19;130212;1260;127840;-67
2023/05/28 11:44:25;;;;;;;5.10;2.10;;;;;;;20.96;27.26;100660.71;129903;1277;116256;-70
2023/05/28 11:47:32;;;;;;;5.20;1.80;;;;;;;20.98;27.20;100653.11;130272;1258;114717;-69
2023/05/28 11:50:34;;;;;;;4.90;1.60;;;;;;;21.02;27.64;100648.40;130202;1254;114807;-70
2023/05/28 11:53:40;;;;;;;3.20;2.50;;;;;;;21.05;27.32;100646.15;130204;1255;114770;-72
2023/05/28 11:56:42;;;;;;;4.70;1.70;;;;;;;20.99;27.24;100642.30;129900;1263;127817;-67
2023/05/28 12:00:25;;;;;;;5.20;1.70;;;;;;;20.92;27.51;100637.60;130073;1258;114783;-73
2023/05/28 12:03:26;;;;;;;4.40;2.00;;;;;;;20.89;27.97;100636.61;129882;1254;114790;-74
2023/05/28 12:06:31;;;;;;;2.50;1.50;;;;;;;20.90;27.83;100635.47;130420;1258;114756;-71
2023/05/28 12:09:35;;;;;;;7.70;3.40;;;;;;;20.91;28.14;100630.10;130160;1258;114765;-68
2023/05/28 12:12:51;;;;;;;4.90;2.60;;;;;;;20.96;28.04;100630.19;130198;1256;128704;-70
2023/05/28 12:16:09;;;;;;;6.10;2.10;;;;;;;20.95;27.95;100634.29;130118;1258;115183;-72
2023/05/28 12:19:14;;;;;;;6.50;2.70;;;;;;;20.92;27.99;100627.45;130021;1259;114765;-71
2023/05/28 12:22:18;;;;;;;13.00;2.50;;;;;;;20.90;28.31;100634.77;129831;1265;115315;-71
2023/05/28 12:25:21;;;;;;;5.50;1.70;;;;;;;20.91;28.83;100622.42;130086;1277;114749;-71
2023/05/28 12:28:24;;;;;;;4.10;1.90;;;;;;;21.01;29.19;100623.26;130206;1254;115331;-71
2023/05/28 12:31:29;;;;;;;7.60;1.80;;;;;;;21.09;28.85;100619.64;130104;1277;114740;-70
2023/05/28 12:34:31;;;;;;;3.20;1.70;;;;;;;21.13;28.44;100617.33;130031;1261;114767;-74
2023/05/28 12:37:33;;;;;;;5.20;1.90;;;;;;;21.11;28.12;100620.02;129970;1261;115208;-71
2023/05/28 12:40:35;;;;;;;5.00;2.10;;;;;;;21.07;28.23;100617.80;130179;1258;115389;-71
2023/05/28 12:43:37;;;;;;;5.30;2.50;;;;;;;21.04;28.04;100615.52;130159;1254;114709;-66
2023/05/28 12:46:39;;;;;;;7.10;3.30;;;;;;;20.99;28.40;100611.30;130116;1255;114753;-72
2023/05/28 12:49:41;;;;;;;5.20;2.60;;;;;;;21.00;28.43;100610.78;130291;1258;115232;-72
2023/05/28 12:52:43;;;;;;;5.40;1.60;;;;;;;21.00;28.32;100608.48;129959;1260;115136;-68
2023/05/28 12:55:46;;;;;;;5.60;2.00;;;;;;;20.97;28.48;100607.77;130204;1258;116436;-71
2023/05/28 12:58:50;;;;;;;2.90;1.90;;;;;;;20.93;28.56;100600.34;130312;1254;115142;-70
2023/05/28 13:01:54;;;;;;;6.10;2.10;;;;;;;20.92;28.75;100598.94;130142;1254;115161;-64
2023/05/28 13:04:56;;;;;;;4.00;1.70;;;;;;;20.91;28.53;100595.02;130191;1258;114685;-68
2023/05/28 13:08:01;;;;;;;4.70;1.80;;;;;;;20.93;28.78;100595.25;130178;1258;114812;-67
2023/05/28 13:11:03;;;;;;;4.40;1.70;;;;;;;20.92;28.26;100595.89;130111;1258;114945;-69
2023/05/28 13:14:06;;;;;;;3.00;1.40;;;;;;;20.87;28.41;100595.04;130186;1254;115261;-67
2023/05/28 13:17:08;;;;;;;3.70;1.50;;;;;;;20.87;28.30;100593.08;130200;1258;114838;-64
2023/05/28 13:20:10;;;;;;;4.70;1.80;;;;;;;20.85;28.67;100584.34;129889;1260;114891;-67
2023/05/28 13:23:12;;;;;;;4.50;1.60;;;;;;;20.87;28.57;100583.62;129928;1260;114849;-65
2023/05/28 13:26:15;;;;;;;4.70;1.70;;;;;;;20.86;28.60;100580.64;130050;1278;114804;-70
2023/05/28 13:29:17;;;;;;;3.30;1.70;;;;;;;20.84;28.45;100572.30;129770;1261;127605;-63
2023/05/28 13:32:20;;;;;;;4.00;1.80;;;;;;;20.84;28.65;100572.80;129982;1278;115342;-65
2023/05/28 13:35:22;;;;;;;2.20;1.60;;;;;;;20.87;28.48;100569.66;130121;1260;114823;-69
2023/05/28 13:38:24;;;;;;;2.30;1.50;;;;;;;20.87;28.57;100566.36;130042;1255;114697;-66
2023/05/28 13:41:26;;;;;;;4.70;1.60;;;;;;;20.89;28.87;100563.13;129991;1256;115320;-64
2023/05/28 13:44:28;;;;;;;7.30;1.80;;;;;;;20.92;28.68;100557.94;130142;1260;114790;-65
2023/05/28 13:47:30;;;;;;;4.40;2.30;;;;;;;20.91;28.90;100554.01;129985;1261;114795;-67
2023/05/28 13:50:33;;;;;;;5.20;1.80;;;;;;;20.94;28.78;100548.45;130176;1260;128691;-66
2023/05/28 13:53:35;;;;;;;8.20;2.20;;;;;;;20.96;28.76;100549.97;130047;1261;115117;-71